sensor_id;sensor_type;location;lat;lon;timestamp;P1;durP1;ratioP1;P2;durP2;ratioP2
64868;SDS011;51349;52.424;10.840;2022-10-16T00:04:38;1.90;;;1.00;;
64868;SDS011;51349;52.424;10.840;2022-10-16T00:09:39;1.52;;;1.10;;
64868;SDS011;51349;52.424;10.840;2022-10-16T00:14:39;1.65;;;1.00;;
64868;SDS011;51349;52.424;10.840;2022-10-16T00:19:41;3.15;;;1.10;;
64868;SDS011;51349;52.424;10.840;2022-10-16T00:24:42;1.20;;;1.10;;
64868;SDS011;51349;52.424;10.840;2022-10-16T00:29:42;1.02;;;1.02;;
64868;SDS011;51349;52.424;10.840;2022-10-16T00:34:43;1.17;;;1.17;;
64868;SDS011;51349;52.424;10.840;2022-10-16T00:39:44;1.05;;;1.05;;
64868;SDS011;51349;52.424;10.840;2022-10-16T00:44:49;2.53;;;1.40;;
64868;SDS011;51349;52.424;10.840;2022-10-16T00:49:58;1.48;;;1.38;;
64868;SDS011;51349;52.424;10.840;2022-10-16T00:55:05;1.40;;;1.30;;
64868;SDS011;51349;52.424;10.840;2022-10-16T01:00:10;1.77;;;1.40;;
64868;SDS011;51349;52.424;10.840;2022-10-16T01:05:13;1.67;;;1.42;;
64868;SDS011;51349;52.424;10.840;2022-10-16T01:15:23;1.55;;;1.40;;
64868;SDS011;51349;52.424;10.840;2022-10-16T01:30:50;2.45;;;1.80;;
64868;SDS011;51349;52.424;10.840;2022-10-16T01:35:56;3.33;;;1.85;;
64868;SDS011;51349;52.424;10.840;2022-10-16T01:41:14;1.88;;;1.77;;
64868;SDS011;51349;52.424;10.840;2022-10-16T01:46:19;2.22;;;1.67;;
64868;SDS011;51349;52.424;10.840;2022-10-16T01:51:22;1.80;;;1.70;;
64868;SDS011;51349;52.424;10.840;2022-10-16T01:56:24;2.78;;;1.65;;
64868;SDS011;51349;52.424;10.840;2022-10-16T02:01:26;2.15;;;1.80;;
64868;SDS011;51349;52.424;10.840;2022-10-16T02:06:30;2.45;;;1.80;;
64868;SDS011;51349;52.424;10.840;2022-10-16T02:11:31;2.03;;;1.50;;
64868;SDS011;51349;52.424;10.840;2022-10-16T02:16:45;2.28;;;1.70;;
64868;SDS011;51349;52.424;10.840;2022-10-16T02:21:49;1.92;;;1.80;;
64868;SDS011;51349;52.424;10.840;2022-10-16T02:27:02;1.73;;;1.63;;
64868;SDS011;51349;52.424;10.840;2022-10-16T02:32:19;1.92;;;1.83;;
64868;SDS011;51349;52.424;10.840;2022-10-16T02:37:23;1.80;;;1.70;;
64868;SDS011;51349;52.424;10.840;2022-10-16T02:42:29;2.15;;;1.88;;
64868;SDS011;51349;52.424;10.840;2022-10-16T02:47:33;2.95;;;1.73;;
64868;SDS011;51349;52.424;10.840;2022-10-16T02:52:34;1.80;;;1.70;;
64868;SDS011;51349;52.424;10.840;2022-10-16T02:57:34;1.90;;;1.80;;
64868;SDS011;51349;52.424;10.840;2022-10-16T03:02:37;1.80;;;1.70;;
64868;SDS011;51349;52.424;10.840;2022-10-16T03:07:37;1.92;;;1.75;;
64868;SDS011;51349;52.424;10.840;2022-10-16T03:12:38;2.10;;;1.90;;
64868;SDS011;51349;52.424;10.840;2022-10-16T03:17:39;2.08;;;1.98;;
64868;SDS011;51349;52.424;10.840;2022-10-16T03:22:39;2.08;;;1.98;;
64868;SDS011;51349;52.424;10.840;2022-10-16T03:27:40;2.08;;;1.98;;
64868;SDS011;51349;52.424;10.840;2022-10-16T03:32:41;1.90;;;1.80;;
64868;SDS011;51349;52.424;10.840;2022-10-16T03:37:41;3.38;;;2.08;;
64868;SDS011;51349;52.424;10.840;2022-10-16T03:42:42;2.00;;;1.90;;
64868;SDS011;51349;52.424;10.840;2022-10-16T03:47:43;2.17;;;2.08;;
64868;SDS011;51349;52.424;10.840;2022-10-16T03:52:44;1.85;;;1.75;;
64868;SDS011;51349;52.424;10.840;2022-10-16T03:57:50;2.45;;;2.05;;
64868;SDS011;51349;52.424;10.840;2022-10-16T04:02:51;2.42;;;2.05;;
64868;SDS011;51349;52.424;10.840;2022-10-16T04:07:52;1.92;;;1.83;;
64868;SDS011;51349;52.424;10.840;2022-10-16T04:12:52;2.05;;;1.92;;
64868;SDS011;51349;52.424;10.840;2022-10-16T04:17:55;2.20;;;2.00;;
64868;SDS011;51349;52.424;10.840;2022-10-16T04:22:56;2.15;;;2.05;;
64868;SDS011;51349;52.424;10.840;2022-10-16T04:27:57;2.25;;;2.00;;
64868;SDS011;51349;52.424;10.840;2022-10-16T04:32:57;2.05;;;1.95;;
64868;SDS011;51349;52.424;10.840;2022-10-16T04:37:58;1.90;;;1.80;;
64868;SDS011;51349;52.424;10.840;2022-10-16T04:42:59;4.63;;;2.10;;
64868;SDS011;51349;52.424;10.840;2022-10-16T04:47:59;3.28;;;2.10;;
64868;SDS011;51349;52.424;10.840;2022-10-16T04:53:00;2.40;;;2.20;;
64868;SDS011;51349;52.424;10.840;2022-10-16T04:58:00;2.42;;;2.13;;
64868;SDS011;51349;52.424;10.840;2022-10-16T05:03:01;2.78;;;1.95;;
64868;SDS011;51349;52.424;10.840;2022-10-16T05:08:05;2.17;;;2.05;;
64868;SDS011;51349;52.424;10.840;2022-10-16T05:13:06;2.08;;;1.98;;
64868;SDS011;51349;52.424;10.840;2022-10-16T05:18:08;2.45;;;2.20;;
64868;SDS011;51349;52.424;10.840;2022-10-16T05:23:09;2.00;;;1.90;;
64868;SDS011;51349;52.424;10.840;2022-10-16T05:28:12;3.15;;;2.22;;
64868;SDS011;51349;52.424;10.840;2022-10-16T05:33:13;2.80;;;2.20;;
64868;SDS011;51349;52.424;10.840;2022-10-16T05:38:14;2.63;;;2.22;;
64868;SDS011;51349;52.424;10.840;2022-10-16T05:43:14;2.40;;;2.20;;
64868;SDS011;51349;52.424;10.840;2022-10-16T05:48:15;6.32;;;2.45;;
64868;SDS011;51349;52.424;10.840;2022-10-16T05:53:15;2.67;;;2.35;;
64868;SDS011;51349;52.424;10.840;2022-10-16T05:58:16;2.50;;;2.30;;
64868;SDS011;51349;52.424;10.840;2022-10-16T06:03:17;2.47;;;2.10;;
64868;SDS011;51349;52.424;10.840;2022-10-16T06:08:18;2.63;;;2.42;;
64868;SDS011;51349;52.424;10.840;2022-10-16T06:13:19;2.70;;;2.50;;
64868;SDS011;51349;52.424;10.840;2022-10-16T06:18:20;2.67;;;2.10;;
64868;SDS011;51349;52.424;10.840;2022-10-16T06:23:20;3.40;;;2.63;;
64868;SDS011;51349;52.424;10.840;2022-10-16T06:28:21;2.80;;;2.60;;
64868;SDS011;51349;52.424;10.840;2022-10-16T06:33:22;3.60;;;3.35;;
64868;SDS011;51349;52.424;10.840;2022-10-16T06:38:22;3.17;;;2.92;;
64868;SDS011;51349;52.424;10.840;2022-10-16T06:43:23;4.75;;;2.80;;
64868;SDS011;51349;52.424;10.840;2022-10-16T06:48:24;2.65;;;2.50;;
64868;SDS011;51349;52.424;10.840;2022-10-16T06:53:25;6.63;;;2.65;;
64868;SDS011;51349;52.424;10.840;2022-10-16T06:58:26;2.58;;;2.38;;
64868;SDS011;51349;52.424;10.840;2022-10-16T07:03:27;2.40;;;2.30;;
64868;SDS011;51349;52.424;10.840;2022-10-16T07:08:27;2.50;;;2.30;;
64868;SDS011;51349;52.424;10.840;2022-10-16T07:13:32;3.35;;;3.05;;
64868;SDS011;51349;52.424;10.840;2022-10-16T07:18:36;3.20;;;2.40;;
64868;SDS011;51349;52.424;10.840;2022-10-16T07:23:40;2.92;;;2.38;;
64868;SDS011;51349;52.424;10.840;2022-10-16T07:28:40;2.35;;;2.25;;
64868;SDS011;51349;52.424;10.840;2022-10-16T07:33:43;2.35;;;2.10;;
64868;SDS011;51349;52.424;10.840;2022-10-16T07:38:45;2.50;;;2.15;;
64868;SDS011;51349;52.424;10.840;2022-10-16T07:43:50;2.22;;;2.00;;
64868;SDS011;51349;52.424;10.840;2022-10-16T07:48:52;2.50;;;2.30;;
64868;SDS011;51349;52.424;10.840;2022-10-16T07:53:53;2.30;;;2.20;;
64868;SDS011;51349;52.424;10.840;2022-10-16T07:58:53;2.50;;;2.30;;
64868;SDS011;51349;52.424;10.840;2022-10-16T08:03:54;3.28;;;2.20;;
64868;SDS011;51349;52.424;10.840;2022-10-16T08:08:55;2.38;;;2.28;;
64868;SDS011;51349;52.424;10.840;2022-10-16T08:13:56;2.42;;;2.17;;
64868;SDS011;51349;52.424;10.840;2022-10-16T08:18:56;2.80;;;1.90;;
64868;SDS011;51349;52.424;10.840;2022-10-16T08:23:57;1.50;;;1.50;;
64868;SDS011;51349;52.424;10.840;2022-10-16T08:28:58;3.75;;;1.75;;
64868;SDS011;51349;52.424;10.840;2022-10-16T08:33:59;2.85;;;1.50;;
64868;SDS011;51349;52.424;10.840;2022-10-16T08:39:00;1.55;;;1.52;;
64868;SDS011;51349;52.424;10.840;2022-10-16T08:49:46;2.28;;;1.33;;
64868;SDS011;51349;52.424;10.840;2022-10-16T08:55:03;1.35;;;1.33;;
64868;SDS011;51349;52.424;10.840;2022-10-16T09:00:13;2.65;;;1.83;;
64868;SDS011;51349;52.424;10.840;2022-10-16T09:10:27;1.58;;;1.48;;
64868;SDS011;51349;52.424;10.840;2022-10-16T09:15:40;2.30;;;1.23;;
64868;SDS011;51349;52.424;10.840;2022-10-16T09:20:59;2.15;;;1.27;;
64868;SDS011;51349;52.424;10.840;2022-10-16T09:26:12;2.45;;;1.40;;
64868;SDS011;51349;52.424;10.840;2022-10-16T09:31:19;2.95;;;1.40;;
64868;SDS011;51349;52.424;10.840;2022-10-16T09:36:21;1.65;;;1.35;;
64868;SDS011;51349;52.424;10.840;2022-10-16T09:41:25;2.17;;;1.20;;
64868;SDS011;51349;52.424;10.840;2022-10-16T09:46:31;0.90;;;0.90;;
64868;SDS011;51349;52.424;10.840;2022-10-16T09:51:34;0.80;;;0.80;;
64868;SDS011;51349;52.424;10.840;2022-10-16T09:56:37;0.80;;;0.80;;
64868;SDS011;51349;52.424;10.840;2022-10-16T10:01:41;1.45;;;0.90;;
64868;SDS011;51349;52.424;10.840;2022-10-16T10:06:53;0.90;;;0.90;;
64868;SDS011;51349;52.424;10.840;2022-10-16T10:11:56;0.77;;;0.77;;
64868;SDS011;51349;52.424;10.840;2022-10-16T10:17:02;1.52;;;1.00;;
64868;SDS011;51349;52.424;10.840;2022-10-16T10:22:23;0.88;;;0.88;;
64868;SDS011;51349;52.424;10.840;2022-10-16T10:43:46;1.15;;;0.80;;
64868;SDS011;51349;52.424;10.840;2022-10-16T10:54:15;1.80;;;0.77;;
64868;SDS011;51349;52.424;10.840;2022-10-16T10:59:40;1.08;;;0.80;;
64868;SDS011;51349;52.424;10.840;2022-10-16T11:10:36;0.63;;;0.63;;
64868;SDS011;51349;52.424;10.840;2022-10-16T11:15:50;1.30;;;0.70;;
64868;SDS011;51349;52.424;10.840;2022-10-16T11:20:57;0.95;;;0.95;;
64868;SDS011;51349;52.424;10.840;2022-10-16T11:26:04;0.82;;;0.80;;
64868;SDS011;51349;52.424;10.840;2022-10-16T11:31:17;2.53;;;0.82;;
64868;SDS011;51349;52.424;10.840;2022-10-16T11:36:19;0.50;;;0.50;;
64868;SDS011;51349;52.424;10.840;2022-10-16T11:46:29;1.67;;;0.65;;
64868;SDS011;51349;52.424;10.840;2022-10-16T11:51:39;0.95;;;0.80;;
64868;SDS011;51349;52.424;10.840;2022-10-16T11:57:09;0.70;;;0.70;;
64868;SDS011;51349;52.424;10.840;2022-10-16T12:08:02;1.23;;;1.10;;
64868;SDS011;51349;52.424;10.840;2022-10-16T12:13:04;0.93;;;0.60;;
64868;SDS011;51349;52.424;10.840;2022-10-16T12:18:25;0.90;;;0.90;;
64868;SDS011;51349;52.424;10.840;2022-10-16T12:23:26;0.75;;;0.75;;
64868;SDS011;51349;52.424;10.840;2022-10-16T12:28:28;1.95;;;0.73;;
64868;SDS011;51349;52.424;10.840;2022-10-16T12:33:30;1.15;;;1.13;;
64868;SDS011;51349;52.424;10.840;2022-10-16T12:38:44;2.22;;;1.02;;
64868;SDS011;51349;52.424;10.840;2022-10-16T12:43:50;1.00;;;0.60;;
64868;SDS011;51349;52.424;10.840;2022-10-16T12:48:51;0.60;;;0.60;;
64868;SDS011;51349;52.424;10.840;2022-10-16T12:59:05;1.35;;;0.73;;
64868;SDS011;51349;52.424;10.840;2022-10-16T13:04:49;1.40;;;0.80;;
64868;SDS011;51349;52.424;10.840;2022-10-16T13:10:15;0.65;;;0.65;;
64868;SDS011;51349;52.424;10.840;2022-10-16T13:31:13;1.23;;;1.13;;
64868;SDS011;51349;52.424;10.840;2022-10-16T13:36:19;2.05;;;0.70;;
64868;SDS011;51349;52.424;10.840;2022-10-16T13:41:28;1.08;;;0.82;;
64868;SDS011;51349;52.424;10.840;2022-10-16T13:46:28;1.25;;;0.60;;
64868;SDS011;51349;52.424;10.840;2022-10-16T13:51:34;0.68;;;0.60;;
64868;SDS011;51349;52.424;10.840;2022-10-16T13:56:34;1.15;;;0.70;;
64868;SDS011;51349;52.424;10.840;2022-10-16T14:01:40;0.60;;;0.60;;
64868;SDS011;51349;52.424;10.840;2022-10-16T14:06:43;1.30;;;1.00;;
64868;SDS011;51349;52.424;10.840;2022-10-16T14:11:48;0.63;;;0.63;;
64868;SDS011;51349;52.424;10.840;2022-10-16T14:16:53;0.55;;;0.40;;
64868;SDS011;51349;52.424;10.840;2022-10-16T14:21:54;0.73;;;0.73;;
64868;SDS011;51349;52.424;10.840;2022-10-16T14:26:56;0.70;;;0.70;;
64868;SDS011;51349;52.424;10.840;2022-10-16T14:31:59;0.85;;;0.70;;
64868;SDS011;51349;52.424;10.840;2022-10-16T14:37:01;2.03;;;0.70;;
64868;SDS011;51349;52.424;10.840;2022-10-16T14:42:16;1.58;;;0.60;;
64868;SDS011;51349;52.424;10.840;2022-10-16T14:47:20;2.05;;;0.70;;
64868;SDS011;51349;52.424;10.840;2022-10-16T14:52:26;0.40;;;0.40;;
64868;SDS011;51349;52.424;10.840;2022-10-16T14:57:27;1.05;;;0.60;;
64868;SDS011;51349;52.424;10.840;2022-10-16T15:02:34;0.70;;;0.63;;
64868;SDS011;51349;52.424;10.840;2022-10-16T15:07:36;1.77;;;0.57;;
64868;SDS011;51349;52.424;10.840;2022-10-16T15:12:37;1.13;;;0.77;;
64868;SDS011;51349;52.424;10.840;2022-10-16T15:17:37;2.08;;;0.70;;
64868;SDS011;51349;52.424;10.840;2022-10-16T15:22:38;0.50;;;0.50;;
64868;SDS011;51349;52.424;10.840;2022-10-16T15:27:39;1.60;;;0.70;;
64868;SDS011;51349;52.424;10.840;2022-10-16T15:32:40;1.40;;;0.60;;
64868;SDS011;51349;52.424;10.840;2022-10-16T15:37:40;0.63;;;0.63;;
64868;SDS011;51349;52.424;10.840;2022-10-16T15:42:41;1.55;;;0.70;;
64868;SDS011;51349;52.424;10.840;2022-10-16T15:47:42;1.85;;;0.70;;
64868;SDS011;51349;52.424;10.840;2022-10-16T15:52:42;1.50;;;0.70;;
64868;SDS011;51349;52.424;10.840;2022-10-16T15:57:44;1.05;;;0.60;;
64868;SDS011;51349;52.424;10.840;2022-10-16T16:02:49;6.82;;;0.93;;
64868;SDS011;51349;52.424;10.840;2022-10-16T16:07:51;3.28;;;1.55;;
64868;SDS011;51349;52.424;10.840;2022-10-16T16:12:56;3.42;;;1.42;;
64868;SDS011;51349;52.424;10.840;2022-10-16T16:17:57;1.70;;;1.30;;
64868;SDS011;51349;52.424;10.840;2022-10-16T16:22:57;3.15;;;1.40;;
64868;SDS011;51349;52.424;10.840;2022-10-16T16:27:58;3.30;;;2.72;;
64868;SDS011;51349;52.424;10.840;2022-10-16T16:32:59;1.83;;;1.33;;
64868;SDS011;51349;52.424;10.840;2022-10-16T16:37:59;1.55;;;1.40;;
64868;SDS011;51349;52.424;10.840;2022-10-16T16:43:00;1.25;;;1.15;;
64868;SDS011;51349;52.424;10.840;2022-10-16T16:48:00;1.30;;;1.10;;
64868;SDS011;51349;52.424;10.840;2022-10-16T16:53:01;3.38;;;1.67;;
64868;SDS011;51349;52.424;10.840;2022-10-16T16:58:02;1.75;;;1.50;;
64868;SDS011;51349;52.424;10.840;2022-10-16T17:03:03;2.67;;;1.58;;
64868;SDS011;51349;52.424;10.840;2022-10-16T17:08:06;2.40;;;2.20;;
64868;SDS011;51349;52.424;10.840;2022-10-16T17:13:07;2.40;;;2.20;;
64868;SDS011;51349;52.424;10.840;2022-10-16T17:18:07;1.95;;;1.85;;
64868;SDS011;51349;52.424;10.840;2022-10-16T17:23:08;2.00;;;1.90;;
64868;SDS011;51349;52.424;10.840;2022-10-16T17:28:11;1.55;;;1.45;;
64868;SDS011;51349;52.424;10.840;2022-10-16T17:33:12;4.03;;;2.22;;
64868;SDS011;51349;52.424;10.840;2022-10-16T17:38:14;2.55;;;2.35;;
64868;SDS011;51349;52.424;10.840;2022-10-16T17:43:15;5.10;;;2.55;;
64868;SDS011;51349;52.424;10.840;2022-10-16T17:48:16;2.90;;;2.70;;
64868;SDS011;51349;52.424;10.840;2022-10-16T17:53:17;3.25;;;2.67;;
64868;SDS011;51349;52.424;10.840;2022-10-16T17:58:17;2.90;;;2.70;;
64868;SDS011;51349;52.424;10.840;2022-10-16T18:03:18;2.90;;;2.70;;
64868;SDS011;51349;52.424;10.840;2022-10-16T18:08:18;2.80;;;2.60;;
64868;SDS011;51349;52.424;10.840;2022-10-16T18:13:19;2.63;;;2.40;;
64868;SDS011;51349;52.424;10.840;2022-10-16T18:18:20;2.72;;;2.20;;
64868;SDS011;51349;52.424;10.840;2022-10-16T18:23:20;3.30;;;2.20;;
64868;SDS011;51349;52.424;10.840;2022-10-16T18:28:24;2.95;;;1.92;;
64868;SDS011;51349;52.424;10.840;2022-10-16T18:33:25;3.25;;;2.95;;
64868;SDS011;51349;52.424;10.840;2022-10-16T18:38:27;3.00;;;2.70;;
64868;SDS011;51349;52.424;10.840;2022-10-16T18:43:28;3.08;;;2.80;;
64868;SDS011;51349;52.424;10.840;2022-10-16T18:48:29;2.88;;;2.67;;
64868;SDS011;51349;52.424;10.840;2022-10-16T18:53:31;3.33;;;2.90;;
64868;SDS011;51349;52.424;10.840;2022-10-16T18:58:35;3.63;;;2.60;;
64868;SDS011;51349;52.424;10.840;2022-10-16T19:03:37;2.88;;;2.55;;
64868;SDS011;51349;52.424;10.840;2022-10-16T19:08:38;3.63;;;3.28;;
64868;SDS011;51349;52.424;10.840;2022-10-16T19:13:39;4.32;;;3.67;;
64868;SDS011;51349;52.424;10.840;2022-10-16T19:18:44;5.22;;;4.00;;
64868;SDS011;51349;52.424;10.840;2022-10-16T19:23:45;4.95;;;4.20;;
64868;SDS011;51349;52.424;10.840;2022-10-16T19:28:46;3.20;;;2.90;;
64868;SDS011;51349;52.424;10.840;2022-10-16T19:33:50;4.78;;;4.32;;
64868;SDS011;51349;52.424;10.840;2022-10-16T19:38:56;3.33;;;3.10;;
64868;SDS011;51349;52.424;10.840;2022-10-16T19:43:59;3.70;;;3.22;;
64868;SDS011;51349;52.424;10.840;2022-10-16T19:49:03;2.95;;;2.70;;
64868;SDS011;51349;52.424;10.840;2022-10-16T19:54:10;5.03;;;2.92;;
64868;SDS011;51349;52.424;10.840;2022-10-16T19:59:12;3.35;;;2.90;;
64868;SDS011;51349;52.424;10.840;2022-10-16T20:04:15;2.78;;;2.55;;
64868;SDS011;51349;52.424;10.840;2022-10-16T20:09:16;4.03;;;3.00;;
64868;SDS011;51349;52.424;10.840;2022-10-16T20:14:16;4.43;;;2.85;;
64868;SDS011;51349;52.424;10.840;2022-10-16T20:19:17;3.53;;;3.00;;
64868;SDS011;51349;52.424;10.840;2022-10-16T20:24:18;4.20;;;3.80;;
64868;SDS011;51349;52.424;10.840;2022-10-16T20:29:19;3.20;;;3.00;;
64868;SDS011;51349;52.424;10.840;2022-10-16T20:34:19;4.07;;;2.60;;
64868;SDS011;51349;52.424;10.840;2022-10-16T20:39:20;5.25;;;2.75;;
64868;SDS011;51349;52.424;10.840;2022-10-16T20:44:20;4.93;;;2.90;;
64868;SDS011;51349;52.424;10.840;2022-10-16T20:49:21;3.13;;;2.92;;
64868;SDS011;51349;52.424;10.840;2022-10-16T20:54:22;2.97;;;2.70;;
64868;SDS011;51349;52.424;10.840;2022-10-16T20:59:22;2.80;;;2.60;;
64868;SDS011;51349;52.424;10.840;2022-10-16T21:04:23;2.83;;;2.47;;
64868;SDS011;51349;52.424;10.840;2022-10-16T21:09:23;2.90;;;2.70;;
64868;SDS011;51349;52.424;10.840;2022-10-16T21:14:24;3.42;;;3.17;;
64868;SDS011;51349;52.424;10.840;2022-10-16T21:19:25;2.97;;;2.67;;
64868;SDS011;51349;52.424;10.840;2022-10-16T21:24:28;3.10;;;2.85;;
64868;SDS011;51349;52.424;10.840;2022-10-16T21:29:29;4.43;;;3.08;;
64868;SDS011;51349;52.424;10.840;2022-10-16T21:34:29;4.10;;;2.50;;
64868;SDS011;51349;52.424;10.840;2022-10-16T21:39:30;2.67;;;2.47;;
64868;SDS011;51349;52.424;10.840;2022-10-16T21:44:31;3.70;;;2.85;;
64868;SDS011;51349;52.424;10.840;2022-10-16T21:49:31;2.83;;;2.63;;
64868;SDS011;51349;52.424;10.840;2022-10-16T21:54:32;3.45;;;2.85;;
64868;SDS011;51349;52.424;10.840;2022-10-16T21:59:32;5.40;;;2.90;;
64868;SDS011;51349;52.424;10.840;2022-10-16T22:04:33;3.85;;;2.80;;
64868;SDS011;51349;52.424;10.840;2022-10-16T22:09:34;3.25;;;2.28;;
64868;SDS011;51349;52.424;10.840;2022-10-16T22:14:34;6.78;;;2.67;;
64868;SDS011;51349;52.424;10.840;2022-10-16T22:19:35;19.42;;;4.05;;
64868;SDS011;51349;52.424;10.840;2022-10-16T22:24:35;4.22;;;2.60;;
64868;SDS011;51349;52.424;10.840;2022-10-16T22:29:36;9.73;;;2.92;;
64868;SDS011;51349;52.424;10.840;2022-10-16T22:34:37;3.78;;;2.35;;
64868;SDS011;51349;52.424;10.840;2022-10-16T22:39:37;4.00;;;2.70;;
64868;SDS011;51349;52.424;10.840;2022-10-16T22:44:38;2.70;;;2.50;;
64868;SDS011;51349;52.424;10.840;2022-10-16T22:49:39;4.18;;;2.33;;
64868;SDS011;51349;52.424;10.840;2022-10-16T22:54:39;3.75;;;2.95;;
64868;SDS011;51349;52.424;10.840;2022-10-16T22:59:40;3.33;;;2.38;;
64868;SDS011;51349;52.424;10.840;2022-10-16T23:04:40;2.20;;;2.00;;
64868;SDS011;51349;52.424;10.840;2022-10-16T23:09:41;2.28;;;1.80;;
64868;SDS011;51349;52.424;10.840;2022-10-16T23:14:42;2.58;;;1.80;;
64868;SDS011;51349;52.424;10.840;2022-10-16T23:19:42;1.73;;;1.60;;
64868;SDS011;51349;52.424;10.840;2022-10-16T23:24:43;2.20;;;1.80;;
64868;SDS011;51349;52.424;10.840;2022-10-16T23:29:44;3.28;;;1.95;;
64868;SDS011;51349;52.424;10.840;2022-10-16T23:34:45;1.92;;;1.73;;
64868;SDS011;51349;52.424;10.840;2022-10-16T23:39:46;1.88;;;1.65;;
64868;SDS011;51349;52.424;10.840;2022-10-16T23:44:46;2.53;;;2.25;;
64868;SDS011;51349;52.424;10.840;2022-10-16T23:49:47;1.90;;;1.80;;
64868;SDS011;51349;52.424;10.840;2022-10-16T23:54:47;2.13;;;1.80;;
64868;SDS011;51349;52.424;10.840;2022-10-16T23:59:51;1.95;;;1.80;;
